sensor_id;sensor_type;location;lat;lon;timestamp;pressure;altitude;pressure_sealevel;temperature;humidity
25947;BME280;13745;51.470;9.894;2024-02-14T00:00:03;99514.47;;;7.00;72.03
25947;BME280;13745;51.470;9.894;2024-02-14T00:02:50;99512.75;;;7.02;71.98
25947;BME280;13745;51.470;9.894;2024-02-14T00:05:36;99503.34;;;7.04;71.69
25947;BME280;13745;51.470;9.894;2024-02-14T00:08:21;99499.03;;;7.06;71.72
25947;BME280;13745;51.470;9.894;2024-02-14T00:11:06;99503.31;;;7.10;72.46
25947;BME280;13745;51.470;9.894;2024-02-14T00:13:51;99493.03;;;7.12;72.25
25947;BME280;13745;51.470;9.894;2024-02-14T00:16:37;99482.72;;;7.10;72.25
25947;BME280;13745;51.470;9.894;2024-02-14T00:19:24;99476.69;;;7.11;72.44
25947;BME280;13745;51.470;9.894;2024-02-14T00:22:09;99468.09;;;7.11;72.50
25947;BME280;13745;51.470;9.894;2024-02-14T00:24:54;99474.13;;;7.10;72.27
25947;BME280;13745;51.470;9.894;2024-02-14T00:27:39;99470.69;;;7.09;72.84
25947;BME280;13745;51.470;9.894;2024-02-14T00:30:25;99464.66;;;7.02;72.32
25947;BME280;13745;51.470;9.894;2024-02-14T00:33:10;99463.78;;;7.00;73.09
25947;BME280;13745;51.470;9.894;2024-02-14T00:35:56;99462.06;;;6.98;72.94
25947;BME280;13745;51.470;9.894;2024-02-14T00:38:41;99468.94;;;6.99;73.11
25947;BME280;13745;51.470;9.894;2024-02-14T00:41:26;99463.78;;;6.99;73.49
25947;BME280;13745;51.470;9.894;2024-02-14T00:44:13;99459.50;;;7.01;73.32
25947;BME280;13745;51.470;9.894;2024-02-14T00:47:00;99463.78;;;7.02;72.92
25947;BME280;13745;51.470;9.894;2024-02-14T00:49:46;99465.50;;;7.01;73.02
25947;BME280;13745;51.470;9.894;2024-02-14T00:52:32;99459.50;;;7.01;73.33
25947;BME280;13745;51.470;9.894;2024-02-14T00:55:18;99459.50;;;6.98;73.35
25947;BME280;13745;51.470;9.894;2024-02-14T00:58:03;99458.63;;;6.94;73.50
25947;BME280;13745;51.470;9.894;2024-02-14T01:00:49;99461.22;;;6.96;74.26
25947;BME280;13745;51.470;9.894;2024-02-14T01:03:34;99450.06;;;6.98;73.64
25947;BME280;13745;51.470;9.894;2024-02-14T01:06:19;99446.59;;;7.01;73.88
25947;BME280;13745;51.470;9.894;2024-02-14T01:09:05;99438.91;;;7.04;73.73
25947;BME280;13745;51.470;9.894;2024-02-14T01:11:50;99433.72;;;7.10;73.94
25947;BME280;13745;51.470;9.894;2024-02-14T01:14:36;99434.63;;;7.12;73.80
25947;BME280;13745;51.470;9.894;2024-02-14T01:17:21;99424.31;;;7.14;73.76
25947;BME280;13745;51.470;9.894;2024-02-14T01:20:07;99431.19;;;7.12;73.63
25947;BME280;13745;51.470;9.894;2024-02-14T01:22:53;99434.63;;;7.14;74.21
25947;BME280;13745;51.470;9.894;2024-02-14T01:25:39;99426.88;;;7.15;74.32
25947;BME280;13745;51.470;9.894;2024-02-14T01:28:26;99432.91;;;7.14;74.15
25947;BME280;13745;51.470;9.894;2024-02-14T01:31:11;99419.16;;;7.17;74.15
25947;BME280;13745;51.470;9.894;2024-02-14T01:33:57;99420.84;;;7.19;73.97
25947;BME280;13745;51.470;9.894;2024-02-14T01:36:45;99417.44;;;7.22;73.97
25947;BME280;13745;51.470;9.894;2024-02-14T01:39:31;99405.38;;;7.19;73.83
25947;BME280;13745;51.470;9.894;2024-02-14T01:42:17;99412.28;;;7.22;74.08
25947;BME280;13745;51.470;9.894;2024-02-14T01:45:03;99408.84;;;7.26;73.87
25947;BME280;13745;51.470;9.894;2024-02-14T01:47:48;99395.09;;;7.31;74.27
25947;BME280;13745;51.470;9.894;2024-02-14T01:50:34;99388.22;;;7.37;73.83
25947;BME280;13745;51.470;9.894;2024-02-14T01:53:20;99388.22;;;7.41;73.76
25947;BME280;13745;51.470;9.894;2024-02-14T01:56:05;99391.66;;;7.46;74.33
25947;BME280;13745;51.470;9.894;2024-02-14T01:58:52;99382.19;;;7.50;74.32
25947;BME280;13745;51.470;9.894;2024-02-14T02:01:38;99389.94;;;7.54;73.55
25947;BME280;13745;51.470;9.894;2024-02-14T02:04:23;99388.19;;;7.59;73.70
25947;BME280;13745;51.470;9.894;2024-02-14T02:07:08;99383.03;;;7.64;73.83
25947;BME280;13745;51.470;9.894;2024-02-14T02:09:53;99377.88;;;7.67;73.63
25947;BME280;13745;51.470;9.894;2024-02-14T02:12:38;99377.00;;;7.68;73.71
25947;BME280;13745;51.470;9.894;2024-02-14T02:15:24;99376.13;;;7.69;73.90
25947;BME280;13745;51.470;9.894;2024-02-14T02:18:10;99380.44;;;7.73;73.56
25947;BME280;13745;51.470;9.894;2024-02-14T02:20:55;99379.56;;;7.74;74.01
25947;BME280;13745;51.470;9.894;2024-02-14T02:23:42;99364.06;;;7.77;73.66
25947;BME280;13745;51.470;9.894;2024-02-14T02:26:29;99366.66;;;7.80;73.64
25947;BME280;13745;51.470;9.894;2024-02-14T02:29:14;99367.50;;;7.82;73.71
25947;BME280;13745;51.470;9.894;2024-02-14T02:32:00;99373.53;;;7.84;73.99
25947;BME280;13745;51.470;9.894;2024-02-14T02:34:45;99369.22;;;7.88;74.12
25947;BME280;13745;51.470;9.894;2024-02-14T02:37:30;99363.19;;;7.92;73.85
25947;BME280;13745;51.470;9.894;2024-02-14T02:40:17;99370.91;;;7.92;73.47
25947;BME280;13745;51.470;9.894;2024-02-14T02:43:02;99360.63;;;7.95;73.54
25947;BME280;13745;51.470;9.894;2024-02-14T02:45:47;99367.47;;;7.98;73.67
25947;BME280;13745;51.470;9.894;2024-02-14T02:48:32;99355.41;;;8.01;73.58
25947;BME280;13745;51.470;9.894;2024-02-14T02:51:17;99351.13;;;8.03;73.70
25947;BME280;13745;51.470;9.894;2024-02-14T02:54:02;99350.25;;;8.06;73.47
25947;BME280;13745;51.470;9.894;2024-02-14T02:56:48;99344.19;;;8.10;73.11
25947;BME280;13745;51.470;9.894;2024-02-14T02:59:34;99337.31;;;8.13;73.54
25947;BME280;13745;51.470;9.894;2024-02-14T03:02:19;99333.81;;;8.17;73.22
25947;BME280;13745;51.470;9.894;2024-02-14T03:05:05;99332.97;;;8.18;73.12
25947;BME280;13745;51.470;9.894;2024-02-14T03:07:54;99319.22;;;8.20;73.57
25947;BME280;13745;51.470;9.894;2024-02-14T03:10:42;99325.22;;;8.22;73.61
25947;BME280;13745;51.470;9.894;2024-02-14T03:13:30;99326.91;;;8.24;73.50
25947;BME280;13745;51.470;9.894;2024-02-14T03:16:16;99321.75;;;8.26;73.30
25947;BME280;13745;51.470;9.894;2024-02-14T03:19:01;99327.78;;;8.29;73.10
25947;BME280;13745;51.470;9.894;2024-02-14T03:21:47;99320.88;;;8.31;73.02
25947;BME280;13745;51.470;9.894;2024-02-14T03:24:32;99317.41;;;8.32;73.37
25947;BME280;13745;51.470;9.894;2024-02-14T03:27:18;99320.00;;;8.32;72.97
25947;BME280;13745;51.470;9.894;2024-02-14T03:30:09;99323.41;;;8.34;73.31
25947;BME280;13745;51.470;9.894;2024-02-14T03:32:56;99307.91;;;8.34;72.76
25947;BME280;13745;51.470;9.894;2024-02-14T03:35:41;99308.81;;;8.35;73.37
25947;BME280;13745;51.470;9.894;2024-02-14T03:38:26;99305.34;;;8.34;73.49
25947;BME280;13745;51.470;9.894;2024-02-14T03:41:12;99303.63;;;8.33;73.52
25947;BME280;13745;51.470;9.894;2024-02-14T03:43:57;99304.47;;;8.34;73.28
25947;BME280;13745;51.470;9.894;2024-02-14T03:46:45;99315.66;;;8.34;72.91
25947;BME280;13745;51.470;9.894;2024-02-14T03:49:31;99326.88;;;8.35;72.90
25947;BME280;13745;51.470;9.894;2024-02-14T03:52:16;99310.56;;;8.36;72.87
25947;BME280;13745;51.470;9.894;2024-02-14T03:55:01;99313.13;;;8.37;73.40
25947;BME280;13745;51.470;9.894;2024-02-14T03:57:46;99330.34;;;8.38;73.27
25947;BME280;13745;51.470;9.894;2024-02-14T04:00:32;99317.41;;;8.40;73.07
25947;BME280;13745;51.470;9.894;2024-02-14T04:03:20;99307.91;;;8.42;73.33
25947;BME280;13745;51.470;9.894;2024-02-14T04:06:05;99313.06;;;8.43;72.98
25947;BME280;13745;51.470;9.894;2024-02-14T04:08:50;99298.44;;;8.46;72.83
25947;BME280;13745;51.470;9.894;2024-02-14T04:11:35;99300.16;;;8.47;73.43
25947;BME280;13745;51.470;9.894;2024-02-14T04:14:20;99296.69;;;8.48;73.10
25947;BME280;13745;51.470;9.894;2024-02-14T04:17:05;99300.13;;;8.48;73.14
25947;BME280;13745;51.470;9.894;2024-02-14T04:19:52;99288.91;;;8.52;73.59
25947;BME280;13745;51.470;9.894;2024-02-14T04:22:38;99292.34;;;8.54;73.13
25947;BME280;13745;51.470;9.894;2024-02-14T04:25:23;99297.50;;;8.56;73.87
25947;BME280;13745;51.470;9.894;2024-02-14T04:28:08;99300.09;;;8.54;74.39
25947;BME280;13745;51.470;9.894;2024-02-14T04:30:55;99288.09;;;8.47;74.88
25947;BME280;13745;51.470;9.894;2024-02-14T04:33:41;99294.97;;;8.43;75.35
25947;BME280;13745;51.470;9.894;2024-02-14T04:36:27;99301.03;;;8.42;75.29
25947;BME280;13745;51.470;9.894;2024-02-14T04:39:13;99290.72;;;8.41;75.71
25947;BME280;13745;51.470;9.894;2024-02-14T04:41:58;99282.94;;;8.42;75.56
25947;BME280;13745;51.470;9.894;2024-02-14T04:44:43;99276.91;;;8.43;75.45
25947;BME280;13745;51.470;9.894;2024-02-14T04:47:29;99278.66;;;8.44;75.52
25947;BME280;13745;51.470;9.894;2024-02-14T04:50:15;99264.00;;;8.47;75.28
25947;BME280;13745;51.470;9.894;2024-02-14T04:53:01;99265.69;;;8.48;75.70
25947;BME280;13745;51.470;9.894;2024-02-14T04:55:46;99271.72;;;8.50;75.62
25947;BME280;13745;51.470;9.894;2024-02-14T04:58:31;99261.34;;;8.54;75.64
25947;BME280;13745;51.470;9.894;2024-02-14T05:01:16;99265.66;;;8.55;75.25
25947;BME280;13745;51.470;9.894;2024-02-14T05:04:02;99258.75;;;8.57;75.07
25947;BME280;13745;51.470;9.894;2024-02-14T05:06:47;99270.78;;;8.58;75.18
25947;BME280;13745;51.470;9.894;2024-02-14T05:09:34;99260.44;;;8.58;75.43
25947;BME280;13745;51.470;9.894;2024-02-14T05:12:19;99287.13;;;8.60;75.88
25947;BME280;13745;51.470;9.894;2024-02-14T05:15:05;99268.19;;;8.60;75.59
25947;BME280;13745;51.470;9.894;2024-02-14T05:17:50;99269.06;;;8.62;75.55
25947;BME280;13745;51.470;9.894;2024-02-14T05:20:35;99273.34;;;8.64;75.72
25947;BME280;13745;51.470;9.894;2024-02-14T05:23:22;99290.53;;;8.65;75.84
25947;BME280;13745;51.470;9.894;2024-02-14T05:26:08;99276.75;;;8.66;75.85
25947;BME280;13745;51.470;9.894;2024-02-14T05:28:54;99281.03;;;8.70;75.80
25947;BME280;13745;51.470;9.894;2024-02-14T05:31:43;99280.16;;;8.73;75.85
25947;BME280;13745;51.470;9.894;2024-02-14T05:34:29;99287.00;;;8.76;75.62
25947;BME280;13745;51.470;9.894;2024-02-14T05:37:14;99274.94;;;8.79;75.19
25947;BME280;13745;51.470;9.894;2024-02-14T05:39:59;99277.50;;;8.81;75.32
25947;BME280;13745;51.470;9.894;2024-02-14T05:42:45;99258.56;;;8.82;75.82
25947;BME280;13745;51.470;9.894;2024-02-14T05:45:30;99255.97;;;8.82;75.62
25947;BME280;13745;51.470;9.894;2024-02-14T05:48:15;99283.53;;;8.83;75.42
25947;BME280;13745;51.470;9.894;2024-02-14T05:51:00;99280.13;;;8.79;75.87
25947;BME280;13745;51.470;9.894;2024-02-14T05:53:45;99281.00;;;8.78;75.90
25947;BME280;13745;51.470;9.894;2024-02-14T05:56:30;99283.56;;;8.75;75.92
25947;BME280;13745;51.470;9.894;2024-02-14T05:59:17;99272.41;;;8.73;76.21
25947;BME280;13745;51.470;9.894;2024-02-14T06:02:02;99285.34;;;8.71;76.24
25947;BME280;13745;51.470;9.894;2024-02-14T06:04:49;99276.75;;;8.69;75.96
25947;BME280;13745;51.470;9.894;2024-02-14T06:07:35;99281.06;;;8.69;76.46
25947;BME280;13745;51.470;9.894;2024-02-14T06:10:20;99287.94;;;8.68;76.47
25947;BME280;13745;51.470;9.894;2024-02-14T06:13:05;99285.34;;;8.70;76.39
25947;BME280;13745;51.470;9.894;2024-02-14T06:15:52;99288.81;;;8.67;76.52
25947;BME280;13745;51.470;9.894;2024-02-14T06:18:37;99292.25;;;8.66;76.26
25947;BME280;13745;51.470;9.894;2024-02-14T06:21:23;99300.00;;;8.68;76.29
25947;BME280;13745;51.470;9.894;2024-02-14T06:24:09;99296.56;;;8.67;76.61
25947;BME280;13745;51.470;9.894;2024-02-14T06:26:57;99306.91;;;8.69;76.79
25947;BME280;13745;51.470;9.894;2024-02-14T06:29:42;99307.75;;;8.69;77.21
25947;BME280;13745;51.470;9.894;2024-02-14T06:32:28;99312.03;;;8.72;76.88
25947;BME280;13745;51.470;9.894;2024-02-14T06:35:14;99302.56;;;8.72;76.87
25947;BME280;13745;51.470;9.894;2024-02-14T06:38:02;99305.97;;;8.75;76.84
25947;BME280;13745;51.470;9.894;2024-02-14T06:40:48;99314.59;;;8.75;77.44
25947;BME280;13745;51.470;9.894;2024-02-14T06:43:33;99318.03;;;8.77;77.22
25947;BME280;13745;51.470;9.894;2024-02-14T06:46:19;99325.78;;;8.77;76.86
25947;BME280;13745;51.470;9.894;2024-02-14T06:49:06;99316.31;;;8.78;77.24
25947;BME280;13745;51.470;9.894;2024-02-14T06:51:51;99326.63;;;8.81;77.21
25947;BME280;13745;51.470;9.894;2024-02-14T06:54:36;99330.06;;;8.81;77.24
25947;BME280;13745;51.470;9.894;2024-02-14T06:57:21;99325.75;;;8.80;77.45
25947;BME280;13745;51.470;9.894;2024-02-14T07:00:07;99323.16;;;8.82;77.04
25947;BME280;13745;51.470;9.894;2024-02-14T07:02:53;99335.19;;;8.84;77.15
25947;BME280;13745;51.470;9.894;2024-02-14T07:05:40;99332.59;;;8.84;77.19
25947;BME280;13745;51.470;9.894;2024-02-14T07:08:25;99337.75;;;8.89;77.35
25947;BME280;13745;51.470;9.894;2024-02-14T07:11:12;99346.34;;;8.91;77.36
25947;BME280;13745;51.470;9.894;2024-02-14T07:13:57;99345.47;;;8.93;77.31
25947;BME280;13745;51.470;9.894;2024-02-14T07:16:42;99351.50;;;8.95;77.56
25947;BME280;13745;51.470;9.894;2024-02-14T07:19:27;99351.47;;;8.97;77.28
25947;BME280;13745;51.470;9.894;2024-02-14T07:22:14;99341.97;;;9.02;77.56
25947;BME280;13745;51.470;9.894;2024-02-14T07:25:00;99338.47;;;9.06;77.64
25947;BME280;13745;51.470;9.894;2024-02-14T07:27:45;99351.38;;;9.12;77.51
25947;BME280;13745;51.470;9.894;2024-02-14T07:30:33;99345.28;;;9.18;77.50
25947;BME280;13745;51.470;9.894;2024-02-14T07:33:19;99346.94;;;9.25;76.98
25947;BME280;13745;51.470;9.894;2024-02-14T07:36:04;99354.66;;;9.31;76.82
25947;BME280;13745;51.470;9.894;2024-02-14T07:38:51;99352.03;;;9.37;76.93
25947;BME280;13745;51.470;9.894;2024-02-14T07:41:36;99347.66;;;9.44;77.08
25947;BME280;13745;51.470;9.894;2024-02-14T07:44:22;99341.53;;;9.49;76.90
25947;BME280;13745;51.470;9.894;2024-02-14T07:47:07;99352.75;;;9.53;76.66
25947;BME280;13745;51.470;9.894;2024-02-14T07:49:52;99353.63;;;9.52;76.87
25947;BME280;13745;51.470;9.894;2024-02-14T07:52:41;99361.28;;;9.60;76.91
25947;BME280;13745;51.470;9.894;2024-02-14T07:55:28;99348.28;;;9.66;76.68
25947;BME280;13745;51.470;9.894;2024-02-14T07:58:13;99349.97;;;9.71;76.73
25947;BME280;13745;51.470;9.894;2024-02-14T08:00:58;99343.00;;;9.75;76.26
25947;BME280;13745;51.470;9.894;2024-02-14T08:03:44;99353.34;;;9.78;76.63
25947;BME280;13745;51.470;9.894;2024-02-14T08:06:30;99367.06;;;9.86;76.43
25947;BME280;13745;51.470;9.894;2024-02-14T08:09:15;99365.19;;;9.99;76.35
25947;BME280;13745;51.470;9.894;2024-02-14T08:12:02;99359.06;;;10.06;76.06
25947;BME280;13745;51.470;9.894;2024-02-14T08:14:48;99359.06;;;10.06;75.97
25947;BME280;13745;51.470;9.894;2024-02-14T08:17:34;99361.66;;;10.06;76.20
25947;BME280;13745;51.470;9.894;2024-02-14T08:20:20;99362.50;;;10.09;76.66
25947;BME280;13745;51.470;9.894;2024-02-14T08:23:06;99360.63;;;10.22;75.97
25947;BME280;13745;51.470;9.894;2024-02-14T08:25:51;99359.69;;;10.29;75.78
25947;BME280;13745;51.470;9.894;2024-02-14T08:28:37;99355.19;;;10.42;75.73
25947;BME280;13745;51.470;9.894;2024-02-14T08:31:22;99363.63;;;10.59;75.41
25947;BME280;13745;51.470;9.894;2024-02-14T08:34:08;99360.88;;;10.68;75.14
25947;BME280;13745;51.470;9.894;2024-02-14T08:36:53;99358.94;;;10.84;75.07
25947;BME280;13745;51.470;9.894;2024-02-14T08:39:39;99366.66;;;10.87;75.00
25947;BME280;13745;51.470;9.894;2024-02-14T08:42:24;99374.41;;;10.89;74.90
25947;BME280;13745;51.470;9.894;2024-02-14T08:45:10;99364.03;;;10.89;75.12
25947;BME280;13745;51.470;9.894;2024-02-14T08:47:56;99358.91;;;10.86;75.02
25947;BME280;13745;51.470;9.894;2024-02-14T08:50:41;99359.91;;;10.77;75.27
25947;BME280;13745;51.470;9.894;2024-02-14T08:53:26;99354.56;;;10.86;75.23
25947;BME280;13745;51.470;9.894;2024-02-14T08:56:11;99364.03;;;10.89;75.33
25947;BME280;13745;51.470;9.894;2024-02-14T08:58:56;99373.59;;;10.84;75.31
25947;BME280;13745;51.470;9.894;2024-02-14T09:01:43;99369.38;;;10.80;75.67
25947;BME280;13745;51.470;9.894;2024-02-14T09:04:28;99385.72;;;10.83;75.63
25947;BME280;13745;51.470;9.894;2024-02-14T09:07:14;99385.63;;;10.89;75.48
25947;BME280;13745;51.470;9.894;2024-02-14T09:09:59;99391.75;;;10.84;75.64
25947;BME280;13745;51.470;9.894;2024-02-14T09:12:44;99418.66;;;10.78;75.67
25947;BME280;13745;51.470;9.894;2024-02-14T09:15:29;99388.50;;;10.71;76.08
25947;BME280;13745;51.470;9.894;2024-02-14T09:18:17;99396.31;;;10.69;76.07
25947;BME280;13745;51.470;9.894;2024-02-14T09:21:03;99391.91;;;10.73;76.02
25947;BME280;13745;51.470;9.894;2024-02-14T09:23:49;99391.81;;;10.81;76.04
25947;BME280;13745;51.470;9.894;2024-02-14T09:26:34;99396.03;;;10.88;76.03
25947;BME280;13745;51.470;9.894;2024-02-14T09:29:19;99398.69;;;10.85;76.09
25947;BME280;13745;51.470;9.894;2024-02-14T09:32:05;99393.56;;;10.79;76.29
25947;BME280;13745;51.470;9.894;2024-02-14T09:34:51;99399.59;;;10.81;76.54
25947;BME280;13745;51.470;9.894;2024-02-14T09:37:36;99400.44;;;10.81;76.39
25947;BME280;13745;51.470;9.894;2024-02-14T09:40:22;99399.59;;;10.81;76.54
25947;BME280;13745;51.470;9.894;2024-02-14T09:43:12;99399.69;;;10.73;76.68
25947;BME280;13745;51.470;9.894;2024-02-14T09:46:02;99405.88;;;10.64;76.80
25947;BME280;13745;51.470;9.894;2024-02-14T09:48:47;99398.19;;;10.57;77.17
25947;BME280;13745;51.470;9.894;2024-02-14T09:51:36;99392.94;;;10.63;77.23
25947;BME280;13745;51.470;9.894;2024-02-14T09:54:23;99397.91;;;10.78;76.99
25947;BME280;13745;51.470;9.894;2024-02-14T09:57:08;99394.31;;;10.88;76.66
25947;BME280;13745;51.470;9.894;2024-02-14T09:59:54;99401.16;;;10.92;76.56
25947;BME280;13745;51.470;9.894;2024-02-14T10:02:40;99403.31;;;11.21;76.10
25947;BME280;13745;51.470;9.894;2024-02-14T10:05:25;99425.34;;;11.50;75.50
25947;BME280;13745;51.470;9.894;2024-02-14T10:08:12;99400.19;;;11.53;75.27
25947;BME280;13745;51.470;9.894;2024-02-14T10:10:57;99397.72;;;11.46;75.49
25947;BME280;13745;51.470;9.894;2024-02-14T10:13:44;99406.41;;;11.45;75.72
25947;BME280;13745;51.470;9.894;2024-02-14T10:16:30;99407.97;;;11.53;75.62
25947;BME280;13745;51.470;9.894;2024-02-14T10:19:15;99413.97;;;11.57;75.67
25947;BME280;13745;51.470;9.894;2024-02-14T10:22:01;99415.84;;;11.49;75.62
25947;BME280;13745;51.470;9.894;2024-02-14T10:24:50;99416.81;;;11.43;76.07
25947;BME280;13745;51.470;9.894;2024-02-14T10:27:36;99419.56;;;11.34;76.28
25947;BME280;13745;51.470;9.894;2024-02-14T10:30:22;99437.91;;;11.22;76.33
25947;BME280;13745;51.470;9.894;2024-02-14T10:33:07;99428.56;;;11.09;76.79
25947;BME280;13745;51.470;9.894;2024-02-14T10:35:54;99437.31;;;11.03;77.17
25947;BME280;13745;51.470;9.894;2024-02-14T10:38:40;99420.94;;;10.98;77.03
25947;BME280;13745;51.470;9.894;2024-02-14T10:41:26;99432.25;;;10.95;77.43
25947;BME280;13745;51.470;9.894;2024-02-14T10:44:15;99464.19;;;10.97;77.46
25947;BME280;13745;51.470;9.894;2024-02-14T10:47:02;99437.47;;;10.92;77.60
25947;BME280;13745;51.470;9.894;2024-02-14T10:49:51;99422.00;;;10.86;77.92
25947;BME280;13745;51.470;9.894;2024-02-14T10:52:40;99436.59;;;10.93;78.05
25947;BME280;13745;51.470;9.894;2024-02-14T10:55:29;99426.13;;;11.01;78.04
25947;BME280;13745;51.470;9.894;2024-02-14T10:58:17;99439.88;;;11.05;77.99
25947;BME280;13745;51.470;9.894;2024-02-14T11:01:02;99436.34;;;11.09;77.84
25947;BME280;13745;51.470;9.894;2024-02-14T11:03:48;99444.13;;;11.10;77.97
25947;BME280;13745;51.470;9.894;2024-02-14T11:06:44;99441.53;;;11.09;78.24
25947;BME280;13745;51.470;9.894;2024-02-14T11:09:32;99435.41;;;11.14;78.11
25947;BME280;13745;51.470;9.894;2024-02-14T11:12:22;99434.66;;;11.09;78.63
25947;BME280;13745;51.470;9.894;2024-02-14T11:15:16;99446.75;;;11.07;78.46
25947;BME280;13745;51.470;9.894;2024-02-14T11:18:06;99447.69;;;11.03;78.62
25947;BME280;13745;51.470;9.894;2024-02-14T11:20:53;99443.34;;;11.05;78.67
25947;BME280;13745;51.470;9.894;2024-02-14T11:23:38;99439.84;;;11.09;78.72
25947;BME280;13745;51.470;9.894;2024-02-14T11:26:23;99448.47;;;11.08;78.88
25947;BME280;13745;51.470;9.894;2024-02-14T11:29:14;99447.63;;;11.09;79.02
25947;BME280;13745;51.470;9.894;2024-02-14T11:32:01;99441.50;;;11.12;78.88
25947;BME280;13745;51.470;9.894;2024-02-14T11:34:53;99444.09;;;11.13;78.86
25947;BME280;13745;51.470;9.894;2024-02-14T11:37:39;99440.50;;;11.22;78.67
25947;BME280;13745;51.470;9.894;2024-02-14T11:40:24;99447.31;;;11.29;78.79
25947;BME280;13745;51.470;9.894;2024-02-14T11:43:11;99438.69;;;11.27;78.79
25947;BME280;13745;51.470;9.894;2024-02-14T11:45:57;99442.03;;;11.35;78.59
25947;BME280;13745;51.470;9.894;2024-02-14T11:48:44;99441.81;;;11.47;78.25
25947;BME280;13745;51.470;9.894;2024-02-14T11:51:31;99439.00;;;11.61;77.85
25947;BME280;13745;51.470;9.894;2024-02-14T11:54:17;99431.13;;;12.17;77.06
25947;BME280;13745;51.470;9.894;2024-02-14T11:57:04;99424.97;;;13.04;75.15
25947;BME280;13745;51.470;9.894;2024-02-14T11:59:52;99427.47;;;13.80;73.46
25947;BME280;13745;51.470;9.894;2024-02-14T12:02:38;99428.41;;;14.43;71.87
25947;BME280;13745;51.470;9.894;2024-02-14T12:05:25;99444.50;;;14.89;70.84
25947;BME280;13745;51.470;9.894;2024-02-14T12:08:10;99443.69;;;14.86;70.74
25947;BME280;13745;51.470;9.894;2024-02-14T12:10:56;99438.84;;;14.43;71.24
25947;BME280;13745;51.470;9.894;2024-02-14T12:13:41;99436.56;;;13.98;72.05
25947;BME280;13745;51.470;9.894;2024-02-14T12:16:27;99441.03;;;13.60;72.87
25947;BME280;13745;51.470;9.894;2024-02-14T12:19:14;99438.19;;;13.34;73.40
25947;BME280;13745;51.470;9.894;2024-02-14T12:22:01;99445.97;;;12.95;74.21
25947;BME280;13745;51.470;9.894;2024-02-14T12:24:46;99443.88;;;12.72;74.82
25947;BME280;13745;51.470;9.894;2024-02-14T12:27:32;99442.34;;;12.62;74.99
25947;BME280;13745;51.470;9.894;2024-02-14T12:30:17;99444.22;;;12.55;75.15
25947;BME280;13745;51.470;9.894;2024-02-14T12:33:04;99453.22;;;12.39;75.52
25947;BME280;13745;51.470;9.894;2024-02-14T12:35:54;99453.47;;;12.27;75.77
25947;BME280;13745;51.470;9.894;2024-02-14T12:38:41;99463.25;;;12.13;76.04
25947;BME280;13745;51.470;9.894;2024-02-14T12:41:26;99457.25;;;12.07;76.32
25947;BME280;13745;51.470;9.894;2024-02-14T12:44:13;99457.34;;;12.04;76.42
25947;BME280;13745;51.470;9.894;2024-02-14T12:46:58;99462.59;;;12.01;76.52
25947;BME280;13745;51.470;9.894;2024-02-14T12:49:43;99455.66;;;12.02;76.48
25947;BME280;13745;51.470;9.894;2024-02-14T12:52:29;99459.88;;;12.07;76.49
25947;BME280;13745;51.470;9.894;2024-02-14T12:55:15;99447.72;;;12.09;76.35
25947;BME280;13745;51.470;9.894;2024-02-14T12:58:02;99457.25;;;12.07;76.51
25947;BME280;13745;51.470;9.894;2024-02-14T13:00:47;99446.88;;;12.09;76.46
25947;BME280;13745;51.470;9.894;2024-02-14T13:03:32;99443.25;;;12.16;76.47
25947;BME280;13745;51.470;9.894;2024-02-14T13:06:18;99439.69;;;12.22;76.40
25947;BME280;13745;51.470;9.894;2024-02-14T13:09:04;99440.34;;;12.31;76.21
25947;BME280;13745;51.470;9.894;2024-02-14T13:11:53;99453.91;;;12.47;76.02
25947;BME280;13745;51.470;9.894;2024-02-14T13:14:39;99465.19;;;12.46;75.82
25947;BME280;13745;51.470;9.894;2024-02-14T13:17:24;99457.63;;;12.35;76.09
25947;BME280;13745;51.470;9.894;2024-02-14T13:20:11;99460.81;;;12.50;nan
25947;BME280;13745;51.470;9.894;2024-02-14T13:22:56;99460.63;;;12.57;76.00
25947;BME280;13745;51.470;9.894;2024-02-14T13:25:41;99463.50;;;12.87;75.37
25947;BME280;13745;51.470;9.894;2024-02-14T13:28:27;99450.81;;;13.12;74.71
25947;BME280;13745;51.470;9.894;2024-02-14T13:31:12;99447.91;;;13.27;74.47
25947;BME280;13745;51.470;9.894;2024-02-14T13:33:58;99437.50;;;15.18;71.09
25947;BME280;13745;51.470;9.894;2024-02-14T13:36:43;99427.94;;;16.46;67.76
25947;BME280;13745;51.470;9.894;2024-02-14T13:39:28;99423.91;;;16.13;67.98
25947;BME280;13745;51.470;9.894;2024-02-14T13:42:13;99438.88;;;15.84;68.48
25947;BME280;13745;51.470;9.894;2024-02-14T13:45:00;99431.03;;;16.57;67.01
25947;BME280;13745;51.470;9.894;2024-02-14T13:47:45;99431.81;;;16.36;67.31
25947;BME280;13745;51.470;9.894;2024-02-14T13:50:30;99440.22;;;15.69;68.48
25947;BME280;13745;51.470;9.894;2024-02-14T13:53:16;99446.63;;;15.33;69.07
25947;BME280;13745;51.470;9.894;2024-02-14T13:56:01;99441.09;;;15.14;69.65
25947;BME280;13745;51.470;9.894;2024-02-14T13:58:46;99445.91;;;14.70;70.38
25947;BME280;13745;51.470;9.894;2024-02-14T14:01:34;99432.84;;;14.39;70.92
25947;BME280;13745;51.470;9.894;2024-02-14T14:04:19;99432.75;;;14.11;71.64
25947;BME280;13745;51.470;9.894;2024-02-14T14:07:04;99444.47;;;13.95;72.16
25947;BME280;13745;51.470;9.894;2024-02-14T14:09:49;99443.88;;;13.85;72.59
25947;BME280;13745;51.470;9.894;2024-02-14T14:12:35;99432.22;;;13.64;72.98
25947;BME280;13745;51.470;9.894;2024-02-14T14:15:20;99443.31;;;13.37;73.47
25947;BME280;13745;51.470;9.894;2024-02-14T14:18:07;99441.16;;;13.15;74.02
25947;BME280;13745;51.470;9.894;2024-02-14T14:20:54;99438.78;;;13.08;74.40
25947;BME280;13745;51.470;9.894;2024-02-14T14:23:39;99432.75;;;13.04;74.61
25947;BME280;13745;51.470;9.894;2024-02-14T14:26:24;99444.16;;;13.00;74.98
25947;BME280;13745;51.470;9.894;2024-02-14T14:29:09;99444.31;;;12.92;75.35
25947;BME280;13745;51.470;9.894;2024-02-14T14:31:54;99440.88;;;12.90;75.43
25947;BME280;13745;51.470;9.894;2024-02-14T14:34:41;99432.22;;;12.90;75.29
25947;BME280;13745;51.470;9.894;2024-02-14T14:37:26;99430.97;;;13.06;75.21
25947;BME280;13745;51.470;9.894;2024-02-14T14:40:11;99443.38;;;13.35;74.71
25947;BME280;13745;51.470;9.894;2024-02-14T14:42:56;99444.81;;;13.47;74.11